sensor_id;sensor_type;location;lat;lon;timestamp;P1;durP1;ratioP1;P2;durP2;ratioP2
75465;SDS011;64049;46.290;44.240;2023-05-28T00:00:41;14.60;;;5.90;;
75465;SDS011;64049;46.290;44.240;2023-05-28T00:03:09;13.90;;;5.57;;
75465;SDS011;64049;46.290;44.240;2023-05-28T00:05:35;12.75;;;5.65;;
75465;SDS011;64049;46.290;44.240;2023-05-28T00:08:01;13.88;;;5.70;;
75465;SDS011;64049;46.290;44.240;2023-05-28T00:10:27;14.13;;;5.55;;
75465;SDS011;64049;46.290;44.240;2023-05-28T00:12:53;12.80;;;6.18;;
75465;SDS011;64049;46.290;44.240;2023-05-28T00:15:19;15.52;;;5.75;;
75465;SDS011;64049;46.290;44.240;2023-05-28T00:17:45;17.40;;;6.28;;
75465;SDS011;64049;46.290;44.240;2023-05-28T00:20:11;10.10;;;4.53;;
75465;SDS011;64049;46.290;44.240;2023-05-28T00:22:37;12.32;;;4.38;;
75465;SDS011;64049;46.290;44.240;2023-05-28T00:25:04;12.05;;;4.97;;
75465;SDS011;64049;46.290;44.240;2023-05-28T00:27:30;11.65;;;5.15;;
75465;SDS011;64049;46.290;44.240;2023-05-28T00:29:56;9.98;;;4.90;;
75465;SDS011;64049;46.290;44.240;2023-05-28T00:32:22;11.63;;;4.07;;
75465;SDS011;64049;46.290;44.240;2023-05-28T00:34:48;12.98;;;4.88;;
75465;SDS011;64049;46.290;44.240;2023-05-28T00:37:13;9.60;;;4.15;;
75465;SDS011;64049;46.290;44.240;2023-05-28T00:39:39;12.07;;;4.90;;
75465;SDS011;64049;46.290;44.240;2023-05-28T00:42:06;9.55;;;4.47;;
75465;SDS011;64049;46.290;44.240;2023-05-28T00:44:33;15.88;;;6.63;;
75465;SDS011;64049;46.290;44.240;2023-05-28T00:47:17;17.15;;;7.15;;
75465;SDS011;64049;46.290;44.240;2023-05-28T00:49:43;14.15;;;6.43;;
75465;SDS011;64049;46.290;44.240;2023-05-28T00:52:09;16.52;;;7.38;;
75465;SDS011;64049;46.290;44.240;2023-05-28T00:54:36;15.10;;;6.63;;
75465;SDS011;64049;46.290;44.240;2023-05-28T00:57:02;15.25;;;6.65;;
75465;SDS011;64049;46.290;44.240;2023-05-28T00:59:30;13.90;;;6.32;;
75465;SDS011;64049;46.290;44.240;2023-05-28T01:01:56;18.45;;;7.13;;
75465;SDS011;64049;46.290;44.240;2023-05-28T01:04:23;14.88;;;6.68;;
75465;SDS011;64049;46.290;44.240;2023-05-28T01:06:49;16.27;;;6.95;;
75465;SDS011;64049;46.290;44.240;2023-05-28T01:09:15;18.42;;;6.93;;
75465;SDS011;64049;46.290;44.240;2023-05-28T01:11:42;15.55;;;7.07;;
75465;SDS011;64049;46.290;44.240;2023-05-28T01:14:12;14.02;;;7.15;;
75465;SDS011;64049;46.290;44.240;2023-05-28T01:16:39;12.30;;;6.25;;
75465;SDS011;64049;46.290;44.240;2023-05-28T01:19:07;13.18;;;6.03;;
75465;SDS011;64049;46.290;44.240;2023-05-28T01:21:34;13.95;;;6.10;;
75465;SDS011;64049;46.290;44.240;2023-05-28T01:24:02;18.40;;;6.22;;
75465;SDS011;64049;46.290;44.240;2023-05-28T01:26:29;18.38;;;7.45;;
75465;SDS011;64049;46.290;44.240;2023-05-28T01:28:55;16.50;;;7.28;;
75465;SDS011;64049;46.290;44.240;2023-05-28T01:31:22;20.92;;;7.75;;
75465;SDS011;64049;46.290;44.240;2023-05-28T01:33:48;18.92;;;7.15;;
75465;SDS011;64049;46.290;44.240;2023-05-28T01:36:16;13.52;;;6.95;;
75465;SDS011;64049;46.290;44.240;2023-05-28T01:38:48;15.80;;;6.22;;
75465;SDS011;64049;46.290;44.240;2023-05-28T01:41:18;14.30;;;5.82;;
75465;SDS011;64049;46.290;44.240;2023-05-28T01:43:46;17.95;;;6.90;;
75465;SDS011;64049;46.290;44.240;2023-05-28T01:46:12;18.10;;;8.38;;
75465;SDS011;64049;46.290;44.240;2023-05-28T01:48:39;15.38;;;6.88;;
75465;SDS011;64049;46.290;44.240;2023-05-28T01:51:05;17.80;;;8.25;;
75465;SDS011;64049;46.290;44.240;2023-05-28T01:53:31;15.43;;;6.47;;
75465;SDS011;64049;46.290;44.240;2023-05-28T01:55:58;19.83;;;8.07;;
75465;SDS011;64049;46.290;44.240;2023-05-28T01:58:25;20.83;;;7.57;;
75465;SDS011;64049;46.290;44.240;2023-05-28T02:00:55;15.88;;;7.47;;
75465;SDS011;64049;46.290;44.240;2023-05-28T02:03:33;17.88;;;7.50;;
75465;SDS011;64049;46.290;44.240;2023-05-28T02:05:59;19.40;;;7.60;;
75465;SDS011;64049;46.290;44.240;2023-05-28T02:08:25;16.55;;;7.13;;
75465;SDS011;64049;46.290;44.240;2023-05-28T02:10:51;15.27;;;7.70;;
75465;SDS011;64049;46.290;44.240;2023-05-28T02:13:17;14.10;;;6.53;;
75465;SDS011;64049;46.290;44.240;2023-05-28T02:15:44;15.65;;;8.18;;
75465;SDS011;64049;46.290;44.240;2023-05-28T02:18:10;20.55;;;8.93;;
75465;SDS011;64049;46.290;44.240;2023-05-28T02:20:36;15.15;;;7.53;;
75465;SDS011;64049;46.290;44.240;2023-05-28T02:23:02;14.63;;;6.55;;
75465;SDS011;64049;46.290;44.240;2023-05-28T02:25:28;19.42;;;7.15;;
75465;SDS011;64049;46.290;44.240;2023-05-28T02:27:54;18.17;;;7.38;;
75465;SDS011;64049;46.290;44.240;2023-05-28T02:30:20;15.95;;;6.57;;
75465;SDS011;64049;46.290;44.240;2023-05-28T02:32:47;16.20;;;6.43;;
75465;SDS011;64049;46.290;44.240;2023-05-28T02:35:15;17.05;;;5.97;;
75465;SDS011;64049;46.290;44.240;2023-05-28T02:37:41;17.60;;;6.47;;
75465;SDS011;64049;46.290;44.240;2023-05-28T02:40:08;14.95;;;5.53;;
75465;SDS011;64049;46.290;44.240;2023-05-28T02:42:36;15.13;;;6.28;;
75465;SDS011;64049;46.290;44.240;2023-05-28T02:45:02;16.70;;;5.93;;
75465;SDS011;64049;46.290;44.240;2023-05-28T02:47:28;12.10;;;5.53;;
75465;SDS011;64049;46.290;44.240;2023-05-28T02:49:54;16.35;;;5.63;;
75465;SDS011;64049;46.290;44.240;2023-05-28T02:52:20;13.77;;;5.97;;
75465;SDS011;64049;46.290;44.240;2023-05-28T02:54:46;13.13;;;5.50;;
75465;SDS011;64049;46.290;44.240;2023-05-28T02:57:12;13.57;;;5.32;;
75465;SDS011;64049;46.290;44.240;2023-05-28T02:59:39;13.32;;;5.35;;
75465;SDS011;64049;46.290;44.240;2023-05-28T03:02:06;14.32;;;5.65;;
75465;SDS011;64049;46.290;44.240;2023-05-28T03:04:32;13.07;;;5.05;;
75465;SDS011;64049;46.290;44.240;2023-05-28T03:07:01;11.05;;;4.75;;
75465;SDS011;64049;46.290;44.240;2023-05-28T03:09:27;10.00;;;4.57;;
75465;SDS011;64049;46.290;44.240;2023-05-28T03:11:53;10.52;;;4.15;;
75465;SDS011;64049;46.290;44.240;2023-05-28T03:14:20;12.50;;;5.72;;
75465;SDS011;64049;46.290;44.240;2023-05-28T03:16:46;16.02;;;5.88;;
75465;SDS011;64049;46.290;44.240;2023-05-28T03:19:19;10.05;;;4.65;;
75465;SDS011;64049;46.290;44.240;2023-05-28T03:21:46;8.48;;;3.78;;
75465;SDS011;64049;46.290;44.240;2023-05-28T03:24:13;10.18;;;3.75;;
75465;SDS011;64049;46.290;44.240;2023-05-28T03:26:50;14.55;;;4.50;;
75465;SDS011;64049;46.290;44.240;2023-05-28T03:29:20;6.75;;;3.47;;
75465;SDS011;64049;46.290;44.240;2023-05-28T03:32:04;10.95;;;4.03;;
75465;SDS011;64049;46.290;44.240;2023-05-28T03:34:30;8.27;;;3.15;;
75465;SDS011;64049;46.290;44.240;2023-05-28T03:36:57;8.40;;;3.08;;
75465;SDS011;64049;46.290;44.240;2023-05-28T03:39:23;8.27;;;3.35;;
75465;SDS011;64049;46.290;44.240;2023-05-28T03:41:51;8.23;;;3.08;;
75465;SDS011;64049;46.290;44.240;2023-05-28T03:44:19;12.95;;;3.70;;
75465;SDS011;64049;46.290;44.240;2023-05-28T03:46:47;9.55;;;3.38;;
75465;SDS011;64049;46.290;44.240;2023-05-28T03:49:13;7.63;;;3.97;;
75465;SDS011;64049;46.290;44.240;2023-05-28T03:51:38;9.52;;;2.92;;
75465;SDS011;64049;46.290;44.240;2023-05-28T03:54:05;7.47;;;3.15;;
75465;SDS011;64049;46.290;44.240;2023-05-28T03:56:31;11.18;;;2.88;;
75465;SDS011;64049;46.290;44.240;2023-05-28T03:58:59;7.22;;;3.55;;
75465;SDS011;64049;46.290;44.240;2023-05-28T04:01:25;7.10;;;3.13;;
75465;SDS011;64049;46.290;44.240;2023-05-28T04:03:53;7.80;;;2.90;;
75465;SDS011;64049;46.290;44.240;2023-05-28T04:06:20;7.05;;;3.92;;
75465;SDS011;64049;46.290;44.240;2023-05-28T04:08:47;8.13;;;3.00;;
75465;SDS011;64049;46.290;44.240;2023-05-28T04:11:13;8.98;;;2.97;;
75465;SDS011;64049;46.290;44.240;2023-05-28T04:13:39;6.97;;;3.17;;
75465;SDS011;64049;46.290;44.240;2023-05-28T04:16:05;9.68;;;3.45;;
75465;SDS011;64049;46.290;44.240;2023-05-28T04:18:32;7.63;;;2.40;;
75465;SDS011;64049;46.290;44.240;2023-05-28T04:20:58;5.13;;;2.47;;
75465;SDS011;64049;46.290;44.240;2023-05-28T04:23:24;6.63;;;3.17;;
75465;SDS011;64049;46.290;44.240;2023-05-28T04:25:51;7.43;;;2.58;;
75465;SDS011;64049;46.290;44.240;2023-05-28T04:28:19;8.02;;;2.80;;
75465;SDS011;64049;46.290;44.240;2023-05-28T04:30:45;11.93;;;3.00;;
75465;SDS011;64049;46.290;44.240;2023-05-28T04:33:11;9.93;;;3.90;;
75465;SDS011;64049;46.290;44.240;2023-05-28T04:35:37;11.93;;;3.70;;
75465;SDS011;64049;46.290;44.240;2023-05-28T04:38:03;12.93;;;4.05;;
75465;SDS011;64049;46.290;44.240;2023-05-28T04:40:29;7.47;;;3.20;;
75465;SDS011;64049;46.290;44.240;2023-05-28T04:42:55;8.82;;;2.78;;
75465;SDS011;64049;46.290;44.240;2023-05-28T04:45:23;7.95;;;2.20;;
75465;SDS011;64049;46.290;44.240;2023-05-28T04:47:49;11.00;;;3.33;;
75465;SDS011;64049;46.290;44.240;2023-05-28T04:50:17;6.88;;;2.17;;
75465;SDS011;64049;46.290;44.240;2023-05-28T04:52:43;7.80;;;2.90;;
75465;SDS011;64049;46.290;44.240;2023-05-28T04:55:09;7.90;;;2.80;;
75465;SDS011;64049;46.290;44.240;2023-05-28T04:57:38;7.13;;;2.55;;
75465;SDS011;64049;46.290;44.240;2023-05-28T05:00:06;7.25;;;3.15;;
75465;SDS011;64049;46.290;44.240;2023-05-28T05:02:38;6.68;;;3.00;;
75465;SDS011;64049;46.290;44.240;2023-05-28T05:05:06;8.18;;;3.08;;
75465;SDS011;64049;46.290;44.240;2023-05-28T05:07:36;11.27;;;4.03;;
75465;SDS011;64049;46.290;44.240;2023-05-28T05:10:06;10.90;;;2.60;;
75465;SDS011;64049;46.290;44.240;2023-05-28T05:12:34;8.10;;;2.40;;
75465;SDS011;64049;46.290;44.240;2023-05-28T05:17:28;7.97;;;2.83;;
75465;SDS011;64049;46.290;44.240;2023-05-28T05:19:54;8.18;;;2.30;;
75465;SDS011;64049;46.290;44.240;2023-05-28T05:22:20;10.35;;;2.70;;
75465;SDS011;64049;46.290;44.240;2023-05-28T05:24:47;9.45;;;2.85;;
75465;SDS011;64049;46.290;44.240;2023-05-28T05:27:14;11.02;;;3.45;;
75465;SDS011;64049;46.290;44.240;2023-05-28T05:29:40;11.52;;;3.17;;
75465;SDS011;64049;46.290;44.240;2023-05-28T05:32:10;7.75;;;2.60;;
75465;SDS011;64049;46.290;44.240;2023-05-28T05:34:36;5.30;;;2.22;;
75465;SDS011;64049;46.290;44.240;2023-05-28T05:37:21;8.00;;;2.40;;
75465;SDS011;64049;46.290;44.240;2023-05-28T05:40:05;9.68;;;3.20;;
75465;SDS011;64049;46.290;44.240;2023-05-28T05:42:49;6.90;;;2.00;;
75465;SDS011;64049;46.290;44.240;2023-05-28T05:45:15;4.93;;;1.90;;
75465;SDS011;64049;46.290;44.240;2023-05-28T05:47:41;7.22;;;2.75;;
75465;SDS011;64049;46.290;44.240;2023-05-28T05:50:10;5.95;;;2.00;;
75465;SDS011;64049;46.290;44.240;2023-05-28T05:52:37;8.98;;;2.95;;
75465;SDS011;64049;46.290;44.240;2023-05-28T05:55:05;7.57;;;2.17;;
75465;SDS011;64049;46.290;44.240;2023-05-28T05:57:31;7.35;;;2.58;;
75465;SDS011;64049;46.290;44.240;2023-05-28T05:59:59;8.45;;;2.88;;
75465;SDS011;64049;46.290;44.240;2023-05-28T06:02:25;13.32;;;3.70;;
75465;SDS011;64049;46.290;44.240;2023-05-28T06:04:51;12.10;;;2.90;;
75465;SDS011;64049;46.290;44.240;2023-05-28T06:07:42;8.23;;;2.42;;
75465;SDS011;64049;46.290;44.240;2023-05-28T06:10:27;7.30;;;2.45;;
75465;SDS011;64049;46.290;44.240;2023-05-28T06:12:53;7.47;;;2.45;;
75465;SDS011;64049;46.290;44.240;2023-05-28T06:15:20;8.80;;;2.50;;
75465;SDS011;64049;46.290;44.240;2023-05-28T06:17:47;10.63;;;2.90;;
75465;SDS011;64049;46.290;44.240;2023-05-28T06:20:14;5.55;;;2.55;;
75465;SDS011;64049;46.290;44.240;2023-05-28T06:22:40;7.45;;;2.30;;
75465;SDS011;64049;46.290;44.240;2023-05-28T06:25:07;7.25;;;2.00;;
75465;SDS011;64049;46.290;44.240;2023-05-28T06:27:34;7.25;;;2.70;;
75465;SDS011;64049;46.290;44.240;2023-05-28T06:32:27;7.32;;;2.50;;
75465;SDS011;64049;46.290;44.240;2023-05-28T06:34:53;8.75;;;2.33;;
75465;SDS011;64049;46.290;44.240;2023-05-28T06:37:19;8.20;;;2.55;;
75465;SDS011;64049;46.290;44.240;2023-05-28T06:39:46;8.40;;;2.85;;
75465;SDS011;64049;46.290;44.240;2023-05-28T06:42:12;5.38;;;2.20;;
75465;SDS011;64049;46.290;44.240;2023-05-28T06:44:46;6.75;;;2.75;;
75465;SDS011;64049;46.290;44.240;2023-05-28T06:47:15;5.75;;;2.10;;
75465;SDS011;64049;46.290;44.240;2023-05-28T06:49:41;10.00;;;3.20;;
75465;SDS011;64049;46.290;44.240;2023-05-28T06:52:07;13.57;;;3.10;;
75465;SDS011;64049;46.290;44.240;2023-05-28T06:54:34;6.35;;;2.33;;
75465;SDS011;64049;46.290;44.240;2023-05-28T06:57:00;8.75;;;2.85;;
75465;SDS011;64049;46.290;44.240;2023-05-28T06:59:45;8.80;;;2.72;;
75465;SDS011;64049;46.290;44.240;2023-05-28T07:02:29;6.35;;;2.28;;
75465;SDS011;64049;46.290;44.240;2023-05-28T07:07:48;7.40;;;2.40;;
75465;SDS011;64049;46.290;44.240;2023-05-28T07:10:13;13.02;;;2.78;;
75465;SDS011;64049;46.290;44.240;2023-05-28T07:12:40;11.45;;;2.55;;
75465;SDS011;64049;46.290;44.240;2023-05-28T07:15:06;8.43;;;2.67;;
75465;SDS011;64049;46.290;44.240;2023-05-28T07:17:33;10.23;;;2.83;;
75465;SDS011;64049;46.290;44.240;2023-05-28T07:19:59;11.13;;;2.35;;
75465;SDS011;64049;46.290;44.240;2023-05-28T07:22:41;6.50;;;2.42;;
75465;SDS011;64049;46.290;44.240;2023-05-28T07:25:07;8.15;;;2.28;;
75465;SDS011;64049;46.290;44.240;2023-05-28T07:27:33;8.07;;;2.42;;
75465;SDS011;64049;46.290;44.240;2023-05-28T07:29:59;8.80;;;2.45;;
75465;SDS011;64049;46.290;44.240;2023-05-28T07:32:26;9.27;;;2.30;;
75465;SDS011;64049;46.290;44.240;2023-05-28T07:34:52;10.77;;;2.95;;
75465;SDS011;64049;46.290;44.240;2023-05-28T07:37:19;7.50;;;2.45;;
75465;SDS011;64049;46.290;44.240;2023-05-28T07:39:46;7.13;;;2.45;;
75465;SDS011;64049;46.290;44.240;2023-05-28T07:42:13;9.50;;;2.92;;
75465;SDS011;64049;46.290;44.240;2023-05-28T07:44:42;10.10;;;2.60;;
75465;SDS011;64049;46.290;44.240;2023-05-28T07:47:08;7.30;;;2.45;;
75465;SDS011;64049;46.290;44.240;2023-05-28T07:49:53;10.52;;;2.78;;
75465;SDS011;64049;46.290;44.240;2023-05-28T07:52:25;19.42;;;4.35;;
75465;SDS011;64049;46.290;44.240;2023-05-28T07:54:59;15.57;;;2.85;;
75465;SDS011;64049;46.290;44.240;2023-05-28T07:57:25;8.05;;;2.30;;
75465;SDS011;64049;46.290;44.240;2023-05-28T07:59:51;6.95;;;2.47;;
75465;SDS011;64049;46.290;44.240;2023-05-28T08:04:44;8.25;;;2.45;;
75465;SDS011;64049;46.290;44.240;2023-05-28T08:07:10;10.13;;;2.70;;
75465;SDS011;64049;46.290;44.240;2023-05-28T08:09:37;9.30;;;2.83;;
75465;SDS011;64049;46.290;44.240;2023-05-28T08:12:04;7.75;;;2.50;;
75465;SDS011;64049;46.290;44.240;2023-05-28T08:14:33;6.57;;;2.30;;
75465;SDS011;64049;46.290;44.240;2023-05-28T08:17:05;6.40;;;2.65;;
75465;SDS011;64049;46.290;44.240;2023-05-28T08:19:57;7.20;;;2.53;;
75465;SDS011;64049;46.290;44.240;2023-05-28T08:22:44;9.57;;;2.78;;
75465;SDS011;64049;46.290;44.240;2023-05-28T08:25:09;9.95;;;2.67;;
75465;SDS011;64049;46.290;44.240;2023-05-28T08:30:02;6.38;;;2.63;;
75465;SDS011;64049;46.290;44.240;2023-05-28T08:32:34;7.80;;;2.85;;
75465;SDS011;64049;46.290;44.240;2023-05-28T08:35:01;11.57;;;2.67;;
75465;SDS011;64049;46.290;44.240;2023-05-28T08:37:27;8.68;;;2.78;;
75465;SDS011;64049;46.290;44.240;2023-05-28T08:40:13;6.10;;;2.58;;
75465;SDS011;64049;46.290;44.240;2023-05-28T08:42:40;6.97;;;2.42;;
75465;SDS011;64049;46.290;44.240;2023-05-28T08:45:06;7.85;;;2.50;;
75465;SDS011;64049;46.290;44.240;2023-05-28T08:47:35;12.52;;;2.58;;
75465;SDS011;64049;46.290;44.240;2023-05-28T08:50:08;8.40;;;2.72;;
75465;SDS011;64049;46.290;44.240;2023-05-28T08:52:49;8.70;;;2.25;;
75465;SDS011;64049;46.290;44.240;2023-05-28T08:55:18;9.30;;;2.28;;
75465;SDS011;64049;46.290;44.240;2023-05-28T08:57:48;8.15;;;2.30;;
75465;SDS011;64049;46.290;44.240;2023-05-28T09:00:14;6.93;;;2.33;;
75465;SDS011;64049;46.290;44.240;2023-05-28T09:05:35;7.65;;;2.72;;
75465;SDS011;64049;46.290;44.240;2023-05-28T09:08:05;7.95;;;2.10;;
75465;SDS011;64049;46.290;44.240;2023-05-28T09:10:33;9.27;;;2.70;;
75465;SDS011;64049;46.290;44.240;2023-05-28T09:13:02;5.53;;;2.08;;
75465;SDS011;64049;46.290;44.240;2023-05-28T09:15:31;6.72;;;2.50;;
75465;SDS011;64049;46.290;44.240;2023-05-28T09:17:59;9.88;;;2.50;;
75465;SDS011;64049;46.290;44.240;2023-05-28T09:20:27;6.15;;;2.50;;
75465;SDS011;64049;46.290;44.240;2023-05-28T09:23:00;8.82;;;1.88;;
75465;SDS011;64049;46.290;44.240;2023-05-28T09:25:57;5.75;;;2.22;;
75465;SDS011;64049;46.290;44.240;2023-05-28T09:28:30;8.43;;;2.22;;
75465;SDS011;64049;46.290;44.240;2023-05-28T09:31:02;7.95;;;2.78;;
75465;SDS011;64049;46.290;44.240;2023-05-28T09:33:32;7.43;;;2.40;;
75465;SDS011;64049;46.290;44.240;2023-05-28T09:35:58;8.15;;;2.03;;
75465;SDS011;64049;46.290;44.240;2023-05-28T09:38:25;5.57;;;1.63;;
75465;SDS011;64049;46.290;44.240;2023-05-28T09:40:53;7.47;;;2.20;;
75465;SDS011;64049;46.290;44.240;2023-05-28T09:43:27;8.93;;;2.92;;
75465;SDS011;64049;46.290;44.240;2023-05-28T09:46:08;9.45;;;2.03;;
75465;SDS011;64049;46.290;44.240;2023-05-28T09:48:34;7.55;;;2.05;;
75465;SDS011;64049;46.290;44.240;2023-05-28T09:51:03;5.60;;;2.25;;
75465;SDS011;64049;46.290;44.240;2023-05-28T09:53:31;7.00;;;2.05;;
75465;SDS011;64049;46.290;44.240;2023-05-28T09:56:02;6.03;;;2.00;;
75465;SDS011;64049;46.290;44.240;2023-05-28T09:58:32;6.38;;;1.90;;
75465;SDS011;64049;46.290;44.240;2023-05-28T10:01:06;7.90;;;1.95;;
75465;SDS011;64049;46.290;44.240;2023-05-28T10:06:15;7.32;;;1.98;;
75465;SDS011;64049;46.290;44.240;2023-05-28T10:08:43;8.13;;;2.35;;
75465;SDS011;64049;46.290;44.240;2023-05-28T10:11:15;3.97;;;1.70;;
75465;SDS011;64049;46.290;44.240;2023-05-28T10:13:42;8.70;;;2.15;;
75465;SDS011;64049;46.290;44.240;2023-05-28T10:16:08;6.47;;;2.35;;
75465;SDS011;64049;46.290;44.240;2023-05-28T10:18:35;6.50;;;1.90;;
75465;SDS011;64049;46.290;44.240;2023-05-28T10:21:01;10.05;;;2.40;;
75465;SDS011;64049;46.290;44.240;2023-05-28T10:25:54;7.90;;;2.20;;
75465;SDS011;64049;46.290;44.240;2023-05-28T10:28:20;7.93;;;2.00;;
75465;SDS011;64049;46.290;44.240;2023-05-28T10:30:47;6.65;;;1.83;;
75465;SDS011;64049;46.290;44.240;2023-05-28T10:33:27;7.53;;;1.98;;
75465;SDS011;64049;46.290;44.240;2023-05-28T10:35:54;7.65;;;2.08;;
75465;SDS011;64049;46.290;44.240;2023-05-28T10:38:21;9.93;;;2.10;;
75465;SDS011;64049;46.290;44.240;2023-05-28T10:40:47;6.32;;;1.88;;
75465;SDS011;64049;46.290;44.240;2023-05-28T10:46:01;6.80;;;1.77;;
75465;SDS011;64049;46.290;44.240;2023-05-28T10:48:29;8.10;;;2.17;;
75465;SDS011;64049;46.290;44.240;2023-05-28T10:50:56;4.57;;;2.05;;
75465;SDS011;64049;46.290;44.240;2023-05-28T10:53:26;9.10;;;2.17;;
75465;SDS011;64049;46.290;44.240;2023-05-28T10:55:52;9.93;;;2.10;;
75465;SDS011;64049;46.290;44.240;2023-05-28T10:58:23;6.05;;;2.05;;
75465;SDS011;64049;46.290;44.240;2023-05-28T11:00:49;11.23;;;2.33;;
75465;SDS011;64049;46.290;44.240;2023-05-28T11:03:16;6.95;;;1.67;;
75465;SDS011;64049;46.290;44.240;2023-05-28T11:05:43;8.00;;;1.92;;
75465;SDS011;64049;46.290;44.240;2023-05-28T11:08:10;6.28;;;1.80;;
75465;SDS011;64049;46.290;44.240;2023-05-28T11:10:38;5.43;;;1.83;;
75465;SDS011;64049;46.290;44.240;2023-05-28T11:13:04;9.90;;;2.08;;
75465;SDS011;64049;46.290;44.240;2023-05-28T11:15:30;5.22;;;1.75;;
75465;SDS011;64049;46.290;44.240;2023-05-28T11:17:59;8.05;;;2.25;;
75465;SDS011;64049;46.290;44.240;2023-05-28T11:20:25;7.97;;;2.00;;
75465;SDS011;64049;46.290;44.240;2023-05-28T11:22:53;5.97;;;1.80;;
75465;SDS011;64049;46.290;44.240;2023-05-28T11:25:19;8.07;;;2.58;;
75465;SDS011;64049;46.290;44.240;2023-05-28T11:27:47;8.50;;;1.83;;
75465;SDS011;64049;46.290;44.240;2023-05-28T11:30:16;8.75;;;2.78;;
75465;SDS011;64049;46.290;44.240;2023-05-28T11:32:43;6.93;;;1.90;;
75465;SDS011;64049;46.290;44.240;2023-05-28T11:35:11;7.38;;;1.90;;
75465;SDS011;64049;46.290;44.240;2023-05-28T11:37:39;7.10;;;1.80;;
75465;SDS011;64049;46.290;44.240;2023-05-28T11:40:07;6.35;;;2.08;;
75465;SDS011;64049;46.290;44.240;2023-05-28T11:42:38;9.07;;;2.53;;
75465;SDS011;64049;46.290;44.240;2023-05-28T11:45:06;8.70;;;2.28;;
75465;SDS011;64049;46.290;44.240;2023-05-28T11:47:33;9.05;;;2.28;;
75465;SDS011;64049;46.290;44.240;2023-05-28T11:50:07;5.25;;;1.60;;
75465;SDS011;64049;46.290;44.240;2023-05-28T11:52:34;8.40;;;2.10;;
75465;SDS011;64049;46.290;44.240;2023-05-28T11:55:01;8.63;;;2.13;;
75465;SDS011;64049;46.290;44.240;2023-05-28T11:57:28;8.52;;;1.85;;
75465;SDS011;64049;46.290;44.240;2023-05-28T12:02:45;6.80;;;1.80;;
75465;SDS011;64049;46.290;44.240;2023-05-28T12:05:13;6.13;;;1.90;;
75465;SDS011;64049;46.290;44.240;2023-05-28T12:07:49;7.43;;;2.17;;
75465;SDS011;64049;46.290;44.240;2023-05-28T12:10:20;7.35;;;1.98;;
75465;SDS011;64049;46.290;44.240;2023-05-28T12:12:48;7.30;;;1.80;;
75465;SDS011;64049;46.290;44.240;2023-05-28T12:15:16;8.18;;;1.83;;
75465;SDS011;64049;46.290;44.240;2023-05-28T12:17:43;5.80;;;1.70;;
75465;SDS011;64049;46.290;44.240;2023-05-28T12:22:40;9.07;;;2.28;;
75465;SDS011;64049;46.290;44.240;2023-05-28T12:25:07;32.80;;;3.20;;
75465;SDS011;64049;46.290;44.240;2023-05-28T12:27:35;14.93;;;2.08;;
75465;SDS011;64049;46.290;44.240;2023-05-28T12:30:05;11.63;;;2.15;;
75465;SDS011;64049;46.290;44.240;2023-05-28T12:32:33;9.18;;;2.10;;
75465;SDS011;64049;46.290;44.240;2023-05-28T12:35:00;8.07;;;2.15;;
75465;SDS011;64049;46.290;44.240;2023-05-28T12:37:25;8.15;;;2.50;;
75465;SDS011;64049;46.290;44.240;2023-05-28T12:39:52;5.45;;;1.88;;
75465;SDS011;64049;46.290;44.240;2023-05-28T12:42:19;7.40;;;2.03;;
75465;SDS011;64049;46.290;44.240;2023-05-28T12:44:46;8.82;;;1.80;;
75465;SDS011;64049;46.290;44.240;2023-05-28T12:47:12;9.30;;;2.00;;
75465;SDS011;64049;46.290;44.240;2023-05-28T12:49:37;8.35;;;2.10;;
75465;SDS011;64049;46.290;44.240;2023-05-28T12:52:03;7.72;;;2.17;;
75465;SDS011;64049;46.290;44.240;2023-05-28T12:54:29;5.88;;;1.63;;
75465;SDS011;64049;46.290;44.240;2023-05-28T12:56:55;8.38;;;2.40;;
75465;SDS011;64049;46.290;44.240;2023-05-28T12:59:22;5.65;;;1.70;;
75465;SDS011;64049;46.290;44.240;2023-05-28T13:01:49;7.05;;;1.90;;
75465;SDS011;64049;46.290;44.240;2023-05-28T13:06:41;9.25;;;2.72;;
75465;SDS011;64049;46.290;44.240;2023-05-28T13:09:08;6.70;;;1.70;;
75465;SDS011;64049;46.290;44.240;2023-05-28T13:11:37;7.40;;;2.15;;
75465;SDS011;64049;46.290;44.240;2023-05-28T13:14:07;6.10;;;1.95;;
75465;SDS011;64049;46.290;44.240;2023-05-28T13:16:33;5.50;;;1.77;;
75465;SDS011;64049;46.290;44.240;2023-05-28T13:19:00;4.75;;;1.70;;
75465;SDS011;64049;46.290;44.240;2023-05-28T13:21:29;9.48;;;2.00;;
75465;SDS011;64049;46.290;44.240;2023-05-28T13:24:03;8.77;;;2.90;;
75465;SDS011;64049;46.290;44.240;2023-05-28T13:26:34;9.50;;;2.30;;
75465;SDS011;64049;46.290;44.240;2023-05-28T13:29:02;7.18;;;2.35;;
75465;SDS011;64049;46.290;44.240;2023-05-28T13:31:29;12.40;;;2.40;;
75465;SDS011;64049;46.290;44.240;2023-05-28T13:33:55;6.43;;;2.45;;
75465;SDS011;64049;46.290;44.240;2023-05-28T13:36:22;7.57;;;2.20;;
75465;SDS011;64049;46.290;44.240;2023-05-28T13:38:51;8.73;;;2.38;;
75465;SDS011;64049;46.290;44.240;2023-05-28T13:41:18;8.55;;;2.03;;
75465;SDS011;64049;46.290;44.240;2023-05-28T13:46:09;5.88;;;1.98;;
75465;SDS011;64049;46.290;44.240;2023-05-28T13:48:35;5.75;;;1.80;;
75465;SDS011;64049;46.290;44.240;2023-05-28T13:51:01;9.82;;;2.17;;
75465;SDS011;64049;46.290;44.240;2023-05-28T13:53:28;9.10;;;2.13;;
75465;SDS011;64049;46.290;44.240;2023-05-28T13:55:56;7.45;;;2.33;;
75465;SDS011;64049;46.290;44.240;2023-05-28T13:58:22;6.82;;;1.90;;
75465;SDS011;64049;46.290;44.240;2023-05-28T14:00:48;9.68;;;1.77;;
75465;SDS011;64049;46.290;44.240;2023-05-28T14:05:42;7.15;;;2.05;;
75465;SDS011;64049;46.290;44.240;2023-05-28T14:08:12;6.72;;;1.95;;
75465;SDS011;64049;46.290;44.240;2023-05-28T14:10:38;9.20;;;2.22;;
75465;SDS011;64049;46.290;44.240;2023-05-28T14:13:05;8.25;;;2.03;;
75465;SDS011;64049;46.290;44.240;2023-05-28T14:15:31;6.80;;;2.05;;
75465;SDS011;64049;46.290;44.240;2023-05-28T14:17:57;6.28;;;1.95;;
75465;SDS011;64049;46.290;44.240;2023-05-28T14:20:23;10.30;;;1.98;;
75465;SDS011;64049;46.290;44.240;2023-05-28T14:22:49;6.32;;;2.22;;
75465;SDS011;64049;46.290;44.240;2023-05-28T14:25:15;9.82;;;2.03;;
75465;SDS011;64049;46.290;44.240;2023-05-28T14:27:41;8.23;;;1.90;;
75465;SDS011;64049;46.290;44.240;2023-05-28T14:30:07;12.52;;;2.33;;
75465;SDS011;64049;46.290;44.240;2023-05-28T14:32:33;8.63;;;2.17;;
75465;SDS011;64049;46.290;44.240;2023-05-28T14:34:59;6.88;;;2.03;;
75465;SDS011;64049;46.290;44.240;2023-05-28T14:37:26;6.25;;;2.05;;
75465;SDS011;64049;46.290;44.240;2023-05-28T14:39:53;9.73;;;3.15;;
75465;SDS011;64049;46.290;44.240;2023-05-28T14:42:18;8.65;;;2.53;;
75465;SDS011;64049;46.290;44.240;2023-05-28T14:44:44;12.05;;;2.35;;
75465;SDS011;64049;46.290;44.240;2023-05-28T14:47:10;6.93;;;1.90;;
75465;SDS011;64049;46.290;44.240;2023-05-28T14:49:36;8.45;;;2.35;;
75465;SDS011;64049;46.290;44.240;2023-05-28T14:54:57;6.38;;;1.90;;
75465;SDS011;64049;46.290;44.240;2023-05-28T14:57:24;16.20;;;2.90;;
75465;SDS011;64049;46.290;44.240;2023-05-28T14:59:52;8.65;;;2.00;;
75465;SDS011;64049;46.290;44.240;2023-05-28T15:02:23;9.75;;;2.35;;
75465;SDS011;64049;46.290;44.240;2023-05-28T15:04:49;11.52;;;2.15;;
75465;SDS011;64049;46.290;44.240;2023-05-28T15:07:15;7.10;;;2.05;;
75465;SDS011;64049;46.290;44.240;2023-05-28T15:09:41;10.35;;;2.72;;
75465;SDS011;64049;46.290;44.240;2023-05-28T15:12:07;34.13;;;3.33;;
75465;SDS011;64049;46.290;44.240;2023-05-28T15:14:33;11.57;;;2.20;;